Search for airport 
image banner adimage banner adimage banner ad
image banner ad

KCVH - Hollister Muni

Located in Hollister, United States

ICAO - CVH, IATA -

Data provided by Airmate  

General information

Coordinates: N36°53'36" W121°24'37"
Elevation is 231 feet MSL.
Magnetic variation is 15° East
View others Airports in California

Operational data

Special qualification required
Current time UTC:
Current local time:
Weather
METAR: KCVH 291415Z AUTO 00000KT 10SM CLR 15/13 A3000 RMK A01
View NOTAMs / SUP AIP / TFR affecting this airport [VIEW]
Communications frequencies: [VIEW]

Runways:

RWY identifierQFULength (ft)Width (ft)SurfaceLDA (ft)
0672°3149100ASPH
13142°6350100ASPH
24252°3149100ASPH
31322°6350100ASPH

Airport contact information

Address: Hollister United States

Other aviation service providers

Flight schools

Hollister Soaring Center, Llc

Hollister Soaring Center, Llc

Satellite view of KCVH